Airfield :
LOGIN :

Register | Disclaimer

   EN    FR    IT 

 










Legend :    VFR   Marginal VFR   IFR   Intensive IFR   Very Intensive IFR
Visi :
Ceiling :
>= 8 km
>= 3000ft
5 to 8 km
1000 to 3000 ft
1500m to 5 km
500 to 1000 ft
800 to 1500m
200 to 500 ft
< 800m
< 200 ft
Symbols :   Thunderstorms  Fog  Heavy snow  Heavy precipitations  Wind > 20 kt
SIGMETs :     Misc.  Thunderstorms  Icing  Turbulence  Mountain Waves  Volcanic Ashes






- Airport Elevation : 13 ft
- IATA code : OST


EBOS - Oostend bruges Int.

CURRENT METAR :
  • 151020Z 20011KT 170V230 9999 FEW025 24/16 Q1004 NOSIG

EXPIRED METARs :
  • 150950Z 19008KT 150V230 9999 FEW025 24/16 Q1004 NOSIG
  • 150920Z 21008KT 170V240 9999 FEW025 23/16 Q1004 NOSIG
  • 150850Z 22010KT 200V260 9999 FEW022 23/16 Q1004 NOSIG
  • 150820Z 23010KT 9999 FEW020 23/17 Q1004 NOSIG
  • 150750Z 21008KT 170V240 CAVOK 22/17 Q1004 NOSIG

TAF TAF EBOS
Valid from the 15 at 06:00 until the 16 at 12:00 UTC


150515Z 1506/1612 22010KT CAVOK
TEMPO 1510/1519 3500 SHRA TSRA
PROB40
TEMPO 1511/1518 VRB15G35KT 2500 +SHRA TSRAGR



MET'MAP, your aeronautical weather chart ! - Copyright ORBIFLY December 2007 - Disclaimer

ORBIFLY MET'MAP TEAM :

Programming & Development : Alexandra Zaïnal
Original concept : Baudouin d'Aumeries
Technical & hardware support : Manuel Goepfert
Assistance : Marc-Olivier Méhu




SOURCES & CREDITS :

   NOAA